createdAt,value
2019-03-28T00:00:08.719Z,1004.50
2019-03-28T00:01:08.891Z,1004.51
2019-03-28T00:02:09.450Z,1004.45
2019-03-28T00:03:08.594Z,1004.57
2019-03-28T00:04:08.576Z,1004.44
2019-03-28T00:05:08.570Z,1004.42
2019-03-28T00:06:08.595Z,1004.38
2019-03-28T00:07:08.592Z,1004.50
2019-03-28T00:08:08.528Z,1004.41
2019-03-28T00:09:08.528Z,1004.09
2019-03-28T00:10:08.521Z,1004.47
2019-03-28T00:11:09.083Z,1004.38
2019-03-28T00:12:08.502Z,1004.53
2019-03-28T00:13:08.480Z,1004.43
2019-03-28T00:14:08.473Z,1004.45
2019-03-28T00:15:08.460Z,1004.38
2019-03-28T00:16:08.467Z,1004.03
2019-03-28T00:17:08.438Z,1004.40
2019-03-28T00:18:08.435Z,1004.36
2019-03-28T00:19:08.423Z,1004.34
2019-03-28T00:20:08.396Z,1004.32
2019-03-28T00:21:08.389Z,1004.41
2019-03-28T00:22:08.417Z,1004.51
2019-03-28T00:23:08.370Z,1004.25
2019-03-28T00:24:08.356Z,1004.24
2019-03-28T00:25:08.356Z,1004.30
2019-03-28T00:26:08.337Z,1004.32
2019-03-28T00:27:08.332Z,1004.26
2019-03-28T00:28:08.330Z,1004.13
2019-03-28T00:29:08.303Z,1004.36
2019-03-28T00:30:08.287Z,1004.30
2019-03-28T00:31:08.336Z,1004.20
2019-03-28T00:32:08.280Z,1004.22
2019-03-28T00:33:08.267Z,1004.19
2019-03-28T00:34:08.241Z,1004.21
2019-03-28T00:35:08.233Z,1004.12
2019-03-28T00:36:08.221Z,1004.22
2019-03-28T00:37:09.001Z,1004.16
2019-03-28T00:38:08.206Z,1004.13
2019-03-28T00:39:08.203Z,1004.19
2019-03-28T00:40:08.199Z,1004.18
2019-03-28T00:41:08.194Z,1004.16
2019-03-28T00:42:08.158Z,1004.21
2019-03-28T00:43:08.144Z,1004.26
2019-03-28T00:44:08.134Z,1004.22
2019-03-28T00:45:08.172Z,1004.20
2019-03-28T00:46:08.110Z,1003.95
2019-03-28T00:47:08.100Z,1004.22
2019-03-28T00:48:08.090Z,1004.29
2019-03-28T00:49:08.175Z,1004.21
2019-03-28T00:50:08.267Z,1004.21
2019-03-28T00:51:08.057Z,1004.23
2019-03-28T00:52:08.059Z,1004.21
2019-03-28T00:53:08.033Z,1004.35
2019-03-28T00:54:08.026Z,1004.23
2019-03-28T00:55:08.014Z,1004.20
2019-03-28T00:56:08.056Z,1004.16
2019-03-28T00:57:07.995Z,1004.23
2019-03-28T00:58:07.988Z,1004.22
2019-03-28T00:59:07.969Z,1004.16
2019-03-28T01:00:07.957Z,1004.12
2019-03-28T01:01:07.944Z,1004.29
2019-03-28T01:02:07.941Z,1004.19
2019-03-28T01:03:07.925Z,1004.23
2019-03-28T01:04:07.913Z,1004.20
2019-03-28T01:05:07.900Z,1004.16
2019-03-28T01:06:07.896Z,1004.14
2019-03-28T01:07:07.881Z,1004.16
2019-03-28T01:08:07.871Z,1004.13
2019-03-28T01:09:07.856Z,1004.15
2019-03-28T01:10:07.861Z,1004.13
2019-03-28T01:11:07.844Z,1004.13
2019-03-28T01:12:07.857Z,1004.08
2019-03-28T01:13:07.833Z,1004.14
2019-03-28T01:14:08.280Z,1004.09
2019-03-28T01:15:07.816Z,1004.10
2019-03-28T01:16:07.784Z,1004.02
2019-03-28T01:17:07.787Z,1003.97
2019-03-28T01:18:07.791Z,1003.99
2019-03-28T01:19:07.758Z,1003.96
2019-03-28T01:20:07.732Z,1004.03
2019-03-28T01:21:07.734Z,1004.03
2019-03-28T01:22:07.717Z,1004.04
2019-03-28T01:23:07.704Z,1004.01
2019-03-28T01:24:07.703Z,1004.13
2019-03-28T01:25:07.682Z,1004.02
2019-03-28T01:26:07.699Z,1004.08
2019-03-28T01:27:07.661Z,1003.99
2019-03-28T01:28:07.653Z,1003.94
2019-03-28T01:29:07.637Z,1004.05
2019-03-28T01:30:07.626Z,1004.01
2019-03-28T01:31:07.615Z,1004.03
2019-03-28T01:32:07.604Z,1003.97
2019-03-28T01:33:07.595Z,1003.95
2019-03-28T01:34:08.134Z,1004.15
2019-03-28T01:35:07.569Z,1004.10
2019-03-28T01:36:07.555Z,1003.95
2019-03-28T01:37:07.561Z,1004.02
2019-03-28T01:38:07.533Z,1004.01
2019-03-28T01:39:07.530Z,1003.97
2019-03-28T01:40:07.512Z,1003.93
2019-03-28T01:41:07.511Z,1003.85
2019-03-28T01:42:07.494Z,1003.98
2019-03-28T01:43:07.481Z,1003.98
2019-03-28T01:44:07.468Z,1003.97
2019-03-28T01:45:08.247Z,1003.94
2019-03-28T01:46:07.447Z,1003.97
2019-03-28T01:47:07.441Z,1003.97
2019-03-28T01:48:08.273Z,1003.91
2019-03-28T01:49:07.415Z,1003.90
2019-03-28T01:50:07.402Z,1003.95
2019-03-28T01:51:07.391Z,1003.90
2019-03-28T01:52:07.387Z,1003.94
2019-03-28T01:53:07.373Z,1003.76
2019-03-28T01:54:07.357Z,1003.92
2019-03-28T01:55:07.350Z,1003.71
2019-03-28T01:56:07.332Z,1003.94
2019-03-28T01:57:11.227Z,1003.96
2019-03-28T01:58:07.309Z,1003.80
2019-03-28T01:59:07.308Z,1003.91
2019-03-28T02:00:07.293Z,1003.97
2019-03-28T02:01:07.279Z,1003.92
2019-03-28T02:02:07.268Z,1003.79
2019-03-28T02:03:07.259Z,1003.87
2019-03-28T02:04:07.243Z,1003.84
2019-03-28T02:05:07.235Z,1003.89
2019-03-28T02:06:07.227Z,1003.73
2019-03-28T02:07:07.210Z,1003.70
2019-03-28T02:08:07.199Z,1003.87
2019-03-28T02:09:07.192Z,1003.91
2019-03-28T02:10:07.181Z,1003.82
2019-03-28T02:11:07.170Z,1003.93
2019-03-28T02:12:07.157Z,1003.75
2019-03-28T02:13:07.151Z,1003.94
2019-03-28T02:14:07.135Z,1003.76
2019-03-28T02:15:07.130Z,1003.89
2019-03-28T02:16:07.109Z,1003.77
2019-03-28T02:17:07.114Z,1003.75
2019-03-28T02:18:07.089Z,1003.83
2019-03-28T02:19:07.079Z,1003.89
2019-03-28T02:20:07.261Z,1003.82
2019-03-28T02:21:09.501Z,1003.83
2019-03-28T02:22:07.044Z,1003.85
2019-03-28T02:23:07.035Z,1003.71
2019-03-28T02:24:07.030Z,1003.67
2019-03-28T02:25:07.155Z,1003.82
2019-03-28T02:26:07.186Z,1003.84
2019-03-28T02:27:07.017Z,1003.84
2019-03-28T02:28:07.038Z,1003.79
2019-03-28T02:29:07.306Z,1003.58
2019-03-28T02:30:07.062Z,1003.79
2019-03-28T02:31:06.961Z,1003.84
2019-03-28T02:32:06.942Z,1003.87
2019-03-28T02:33:06.933Z,1003.87
2019-03-28T02:34:07.003Z,1003.94
2019-03-28T02:35:06.951Z,1003.95
2019-03-28T02:36:06.888Z,1003.90
2019-03-28T02:37:06.882Z,1003.81
2019-03-28T02:38:06.893Z,1003.85
2019-03-28T02:39:06.854Z,1003.91
2019-03-28T02:40:07.019Z,1003.87
2019-03-28T02:41:06.833Z,1003.81
2019-03-28T02:42:06.822Z,1003.84
2019-03-28T02:43:06.816Z,1003.91
2019-03-28T02:44:06.802Z,1003.86
2019-03-28T02:45:06.799Z,1003.87
2019-03-28T02:46:06.785Z,1003.83
2019-03-28T02:47:06.776Z,1003.93
2019-03-28T02:48:06.761Z,1004.02
2019-03-28T02:49:06.752Z,1003.81
2019-03-28T02:50:06.733Z,1003.89
2019-03-28T02:51:06.722Z,1003.76
2019-03-28T02:52:06.718Z,1003.82
2019-03-28T02:53:06.700Z,1003.91
2019-03-28T02:54:06.708Z,1004.00
2019-03-28T02:55:06.687Z,1004.07
2019-03-28T02:56:06.721Z,1003.96
2019-03-28T02:57:07.686Z,1004.01
2019-03-28T02:58:06.648Z,1003.95
2019-03-28T02:59:06.637Z,1003.93
2019-03-28T03:00:06.626Z,1003.99
2019-03-28T03:01:06.615Z,1003.98
2019-03-28T03:02:06.819Z,1003.95
2019-03-28T03:03:06.593Z,1004.15
2019-03-28T03:04:06.583Z,1004.04
2019-03-28T03:05:06.571Z,1004.03
2019-03-28T03:06:06.559Z,1004.12
2019-03-28T03:07:06.554Z,1003.99
2019-03-28T03:08:07.705Z,1004.07
2019-03-28T03:09:06.532Z,1003.92
2019-03-28T03:10:06.507Z,1004.01
2019-03-28T03:11:06.497Z,1004.07
2019-03-28T03:12:06.492Z,1004.04
2019-03-28T03:13:06.491Z,1004.04
2019-03-28T03:14:06.473Z,1004.04
2019-03-28T03:15:06.554Z,1004.13
2019-03-28T03:16:06.446Z,1004.21
2019-03-28T03:17:06.436Z,1004.07
2019-03-28T03:18:07.675Z,1003.98
2019-03-28T03:19:06.412Z,1004.08
2019-03-28T03:20:06.405Z,1004.18
2019-03-28T03:21:06.386Z,1004.19
2019-03-28T03:22:06.387Z,1004.12
2019-03-28T03:23:06.363Z,1004.10
2019-03-28T03:24:06.352Z,1004.16
2019-03-28T03:25:06.344Z,1004.14
2019-03-28T03:26:06.334Z,1004.19
2019-03-28T03:27:06.327Z,1004.14
2019-03-28T03:28:06.329Z,1004.23
2019-03-28T03:29:06.297Z,1004.19
2019-03-28T03:30:06.308Z,1004.13
2019-03-28T03:31:06.274Z,1004.25
2019-03-28T03:32:06.269Z,1004.20
2019-03-28T03:33:06.283Z,1004.17
2019-03-28T03:34:06.244Z,1004.14
2019-03-28T03:35:06.236Z,1004.24
2019-03-28T03:36:06.218Z,1004.23
2019-03-28T03:37:06.212Z,1004.22
2019-03-28T03:38:06.195Z,1004.33
2019-03-28T03:39:06.186Z,1004.11
2019-03-28T03:40:06.207Z,1004.24
2019-03-28T03:41:06.183Z,1004.11
2019-03-28T03:42:06.152Z,1004.19
2019-03-28T03:43:06.152Z,1004.17
2019-03-28T03:44:06.137Z,1004.10
2019-03-28T03:45:06.126Z,1004.24
2019-03-28T03:46:06.109Z,1004.23
2019-03-28T03:47:06.113Z,1004.16
2019-03-28T03:48:06.089Z,1004.12
2019-03-28T03:49:06.075Z,1004.22
2019-03-28T03:50:06.064Z,1004.20
2019-03-28T03:51:06.057Z,1004.24
2019-03-28T03:52:06.040Z,1004.23
2019-03-28T03:53:06.033Z,1004.26
2019-03-28T03:54:06.029Z,1004.22
2019-03-28T03:55:06.007Z,1004.30
2019-03-28T03:56:06.003Z,1004.22
2019-03-28T03:57:05.990Z,1004.22
2019-03-28T03:58:15.641Z,1004.32
2019-03-28T03:59:06.967Z,1004.33
2019-03-28T04:00:05.957Z,1004.26
2019-03-28T04:01:05.944Z,1004.34
2019-03-28T04:02:05.933Z,1004.28
2019-03-28T04:03:05.925Z,1004.38
2019-03-28T04:04:05.934Z,1004.34
2019-03-28T04:05:05.901Z,1004.39
2019-03-28T04:06:05.889Z,1004.38
2019-03-28T04:07:05.881Z,1004.34
2019-03-28T04:08:05.872Z,1004.35
2019-03-28T04:09:05.856Z,1004.40
2019-03-28T04:10:05.854Z,1004.39
2019-03-28T04:11:05.833Z,1004.29
2019-03-28T04:12:05.850Z,1004.45
2019-03-28T04:13:05.863Z,1004.31
2019-03-28T04:14:05.801Z,1004.31
2019-03-28T04:15:05.819Z,1004.31
2019-03-28T04:16:05.784Z,1004.30
2019-03-28T04:17:05.766Z,1004.41
2019-03-28T04:18:05.752Z,1004.45
2019-03-28T04:19:05.953Z,1004.61
2019-03-28T04:20:05.739Z,1004.62
2019-03-28T04:21:05.727Z,1004.49
2019-03-28T04:22:05.714Z,1004.35
2019-03-28T04:23:05.711Z,1004.38
2019-03-28T04:24:05.692Z,1004.60
2019-03-28T04:25:05.673Z,1004.54
2019-03-28T04:26:06.007Z,1004.47
2019-03-28T04:27:05.654Z,1004.56
2019-03-28T04:28:05.649Z,1004.57
2019-03-28T04:29:05.639Z,1004.51
2019-03-28T04:30:05.626Z,1004.63
2019-03-28T04:31:05.792Z,1004.55
2019-03-28T04:32:05.600Z,1004.48
2019-03-28T04:33:05.607Z,1004.59
2019-03-28T04:34:07.825Z,1004.61
2019-03-28T04:35:05.573Z,1004.56
2019-03-28T04:36:05.567Z,1004.58
2019-03-28T04:37:06.507Z,1004.60
2019-03-28T04:38:05.540Z,1004.60
2019-03-28T04:39:05.526Z,1004.60
2019-03-28T04:40:05.515Z,1004.63
2019-03-28T04:41:05.535Z,1004.65
2019-03-28T04:42:05.492Z,1004.69
2019-03-28T04:43:05.479Z,1004.61
2019-03-28T04:44:05.470Z,1004.45
2019-03-28T04:45:05.646Z,1004.62
2019-03-28T04:46:05.442Z,1004.59
2019-03-28T04:47:05.433Z,1004.59
2019-03-28T04:48:05.420Z,1004.66
2019-03-28T04:49:05.414Z,1004.66
2019-03-28T04:50:05.396Z,1004.66
2019-03-28T04:51:05.383Z,1004.68
2019-03-28T04:52:05.375Z,1004.58
2019-03-28T04:53:05.365Z,1004.66
2019-03-28T04:54:05.354Z,1004.72
2019-03-28T04:55:05.341Z,1004.71
2019-03-28T04:56:05.328Z,1004.73
2019-03-28T04:57:05.320Z,1004.70
2019-03-28T04:58:05.305Z,1004.76
2019-03-28T04:59:05.294Z,1004.63
2019-03-28T05:00:05.287Z,1004.70
2019-03-28T05:01:05.276Z,1004.79
2019-03-28T05:02:05.435Z,1004.77
2019-03-28T05:03:05.249Z,1004.80
2019-03-28T05:04:05.239Z,1004.80
2019-03-28T05:05:05.228Z,1004.80
2019-03-28T05:06:05.218Z,1004.76
2019-03-28T05:07:05.209Z,1004.78
2019-03-28T05:08:05.194Z,1004.82
2019-03-28T05:09:05.180Z,1004.86
2019-03-28T05:10:05.174Z,1004.84
2019-03-28T05:11:05.158Z,1004.86
2019-03-28T05:12:05.155Z,1004.88
2019-03-28T05:13:05.189Z,1005.01
2019-03-28T05:14:05.131Z,1004.88
2019-03-28T05:15:06.030Z,1004.86
2019-03-28T05:16:05.107Z,1004.94
2019-03-28T05:17:05.096Z,1004.94
2019-03-28T05:18:05.085Z,1004.82
2019-03-28T05:19:05.073Z,1004.88
2019-03-28T05:20:05.060Z,1004.95
2019-03-28T05:21:05.050Z,1004.93
2019-03-28T05:22:05.043Z,1004.94
2019-03-28T05:23:05.028Z,1004.94
2019-03-28T05:24:05.019Z,1005.06
2019-03-28T05:25:05.013Z,1004.92
2019-03-28T05:26:04.991Z,1004.94
2019-03-28T05:27:04.982Z,1005.02
2019-03-28T05:28:04.973Z,1004.93
2019-03-28T05:29:04.958Z,1004.98
2019-03-28T05:30:06.566Z,1005.07
2019-03-28T05:31:04.936Z,1005.01
2019-03-28T05:32:04.925Z,1005.00
2019-03-28T05:33:04.913Z,1004.97
2019-03-28T05:34:04.906Z,1004.95
2019-03-28T05:35:04.896Z,1005.20
2019-03-28T05:36:04.894Z,1004.98
2019-03-28T05:37:04.873Z,1005.01
2019-03-28T05:38:04.862Z,1005.05
2019-03-28T05:39:04.851Z,1005.10
2019-03-28T05:40:04.839Z,1004.96
2019-03-28T05:41:04.829Z,1004.94
2019-03-28T05:42:04.817Z,1005.04
2019-03-28T05:43:04.811Z,1004.99
2019-03-28T05:44:04.799Z,1005.03
2019-03-28T05:45:04.789Z,1005.13
2019-03-28T05:46:04.780Z,1005.14
2019-03-28T05:47:04.763Z,1005.14
2019-03-28T05:48:04.749Z,1005.07
2019-03-28T05:49:04.741Z,1005.23
2019-03-28T05:50:04.728Z,1005.22
2019-03-28T05:51:04.718Z,1005.17
2019-03-28T05:52:04.706Z,1005.16
2019-03-28T05:53:04.698Z,1005.27
2019-03-28T05:54:04.683Z,1005.32
2019-03-28T05:55:05.497Z,1005.26
2019-03-28T05:56:04.686Z,1005.22
2019-03-28T05:57:04.651Z,1005.24
2019-03-28T05:58:04.645Z,1005.37
2019-03-28T05:59:10.632Z,1005.33
2019-03-28T06:00:05.617Z,1005.37
2019-03-28T06:01:04.638Z,1005.38
2019-03-28T06:02:04.624Z,1005.32
2019-03-28T06:03:04.585Z,1005.33
2019-03-28T06:04:04.603Z,1005.25
2019-03-28T06:05:04.589Z,1005.40
2019-03-28T06:06:04.557Z,1005.34
2019-03-28T06:07:04.542Z,1005.33
2019-03-28T06:08:04.530Z,1005.43
2019-03-28T06:09:04.518Z,1005.48
2019-03-28T06:10:04.512Z,1005.45
2019-03-28T06:11:04.510Z,1005.61
2019-03-28T06:12:04.494Z,1005.33
2019-03-28T06:13:04.482Z,1005.37
2019-03-28T06:14:04.466Z,1005.45
2019-03-28T06:15:04.450Z,1005.48
2019-03-28T06:16:04.451Z,1005.46
2019-03-28T06:17:04.453Z,1005.42
2019-03-28T06:18:04.439Z,1005.41
2019-03-28T06:19:04.418Z,1005.47
2019-03-28T06:20:04.440Z,1005.48
2019-03-28T06:21:04.401Z,1005.53
2019-03-28T06:22:04.390Z,1005.44
2019-03-28T06:23:04.374Z,1005.56
2019-03-28T06:24:05.295Z,1005.55
2019-03-28T06:25:05.978Z,1005.53
2019-03-28T06:26:04.339Z,1005.53
2019-03-28T06:27:04.324Z,1005.59
2019-03-28T06:28:04.350Z,1005.55
2019-03-28T06:29:04.313Z,1005.56
2019-03-28T06:30:04.321Z,1005.61
2019-03-28T06:31:04.278Z,1005.66
2019-03-28T06:32:04.308Z,1005.69
2019-03-28T06:33:04.258Z,1005.66
2019-03-28T06:34:04.239Z,1005.64
2019-03-28T06:35:04.235Z,1005.64
2019-03-28T06:36:04.253Z,1005.48
2019-03-28T06:37:04.217Z,1005.59
2019-03-28T06:38:04.197Z,1005.74
2019-03-28T06:39:04.200Z,1005.62
2019-03-28T06:40:04.278Z,1005.61
2019-03-28T06:41:04.169Z,1005.79
2019-03-28T06:42:04.161Z,1005.60
2019-03-28T06:43:04.164Z,1005.83
2019-03-28T06:44:04.146Z,1005.71
2019-03-28T06:45:04.192Z,1005.67
2019-03-28T06:46:04.204Z,1005.69
2019-03-28T06:47:04.146Z,1005.63
2019-03-28T06:48:04.195Z,1005.61
2019-03-28T06:49:04.179Z,1005.76
2019-03-28T06:50:04.066Z,1005.77
2019-03-28T06:51:04.180Z,1005.72
2019-03-28T06:52:04.145Z,1005.79
2019-03-28T06:53:04.107Z,1005.75
2019-03-28T06:54:04.502Z,1005.77
2019-03-28T06:55:04.049Z,1005.90
2019-03-28T06:56:04.055Z,1005.87
2019-03-28T06:57:04.040Z,1005.83
2019-03-28T06:58:04.012Z,1005.86
2019-03-28T06:59:03.966Z,1005.77
2019-03-28T07:00:03.954Z,1005.82
2019-03-28T07:01:03.945Z,1005.89
2019-03-28T07:02:03.938Z,1005.86
2019-03-28T07:03:03.917Z,1005.80
2019-03-28T07:04:04.502Z,1005.81
2019-03-28T07:05:03.905Z,1005.84
2019-03-28T07:06:03.889Z,1005.81
2019-03-28T07:07:03.876Z,1005.91
2019-03-28T07:08:03.878Z,1005.84
2019-03-28T07:09:03.851Z,1005.91
2019-03-28T07:10:03.862Z,1005.94
2019-03-28T07:11:03.830Z,1005.83
2019-03-28T07:12:03.824Z,1005.94
2019-03-28T07:13:03.812Z,1005.96
2019-03-28T07:14:03.804Z,1005.98
2019-03-28T07:15:03.792Z,1005.87
2019-03-28T07:16:03.771Z,1005.87
2019-03-28T07:17:03.772Z,1005.74
2019-03-28T07:18:03.754Z,1005.89
2019-03-28T07:19:03.745Z,1005.84
2019-03-28T07:20:03.729Z,1005.97
2019-03-28T07:21:03.721Z,1006.01
2019-03-28T07:22:03.702Z,1005.99
2019-03-28T07:23:03.696Z,1005.91
2019-03-28T07:24:03.694Z,1005.87
2019-03-28T07:25:03.675Z,1006.11
2019-03-28T07:26:03.660Z,1005.96
2019-03-28T07:27:03.652Z,1006.01
2019-03-28T07:28:06.230Z,1005.97
2019-03-28T07:29:03.635Z,1005.98
2019-03-28T07:30:03.620Z,1006.02
2019-03-28T07:31:03.603Z,1006.02
2019-03-28T07:32:03.600Z,1006.03
2019-03-28T07:33:03.612Z,1006.00
2019-03-28T07:34:03.577Z,1005.94
2019-03-28T07:35:03.564Z,1005.97
2019-03-28T07:36:03.563Z,1005.81
2019-03-28T07:37:03.550Z,1005.93
2019-03-28T07:38:03.592Z,1005.99
2019-03-28T07:39:03.521Z,1005.92
2019-03-28T07:40:03.511Z,1005.89
2019-03-28T07:41:03.495Z,1005.84
2019-03-28T07:42:03.494Z,1005.97
2019-03-28T07:43:03.475Z,1005.91
2019-03-28T07:44:03.466Z,1005.80
2019-03-28T07:45:03.458Z,1005.96
2019-03-28T07:46:03.482Z,1005.91
2019-03-28T07:47:03.433Z,1005.84
2019-03-28T07:48:03.423Z,1005.85
2019-03-28T07:49:03.422Z,1005.80
2019-03-28T07:50:03.397Z,1005.86
2019-03-28T07:51:03.384Z,1005.98
2019-03-28T07:52:03.382Z,1005.95
2019-03-28T07:53:03.379Z,1005.88
2019-03-28T07:54:03.353Z,1005.94
2019-03-28T07:55:03.434Z,1005.95
2019-03-28T07:56:03.347Z,1005.91
2019-03-28T07:57:03.346Z,1006.16
2019-03-28T07:58:03.316Z,1005.98
2019-03-28T07:59:03.329Z,1005.98
2019-03-28T08:00:04.757Z,1006.06
2019-03-28T08:01:03.330Z,1005.96
2019-03-28T08:02:03.310Z,1006.10
2019-03-28T08:03:03.278Z,1005.97
2019-03-28T08:04:03.249Z,1006.11
2019-03-28T08:05:03.278Z,1006.06
2019-03-28T08:06:03.262Z,1006.02
2019-03-28T08:07:03.220Z,1006.04
2019-03-28T08:08:03.205Z,1006.08
2019-03-28T08:09:03.220Z,1006.05
2019-03-28T08:10:03.192Z,1006.15
2019-03-28T08:11:03.174Z,1006.20
2019-03-28T08:12:03.224Z,1006.14
2019-03-28T08:13:03.241Z,1006.11
2019-03-28T08:14:03.166Z,1006.16
2019-03-28T08:15:03.114Z,1006.16
2019-03-28T08:16:03.107Z,1006.16
2019-03-28T08:17:03.098Z,1006.22
2019-03-28T08:18:03.085Z,1006.22
2019-03-28T08:19:03.094Z,1006.14
2019-03-28T08:20:03.159Z,1006.31
2019-03-28T08:21:03.058Z,1006.39
2019-03-28T08:22:03.049Z,1006.28
2019-03-28T08:23:03.034Z,1006.30
2019-03-28T08:24:03.027Z,1006.23
2019-03-28T08:25:03.227Z,1006.29
2019-03-28T08:26:03.011Z,1006.28
2019-03-28T08:27:02.998Z,1006.28
2019-03-28T08:28:03.056Z,1006.28
2019-03-28T08:29:02.964Z,1006.46
2019-03-28T08:30:02.959Z,1006.40
2019-03-28T08:31:02.950Z,1006.28
2019-03-28T08:32:02.945Z,1006.23
2019-03-28T08:33:02.929Z,1006.36
2019-03-28T08:34:02.969Z,1006.39
2019-03-28T08:35:26.650Z,1006.42
2019-03-28T08:36:02.887Z,1006.33
2019-03-28T08:37:02.886Z,1006.35
2019-03-28T08:38:03.063Z,1006.41
2019-03-28T08:39:02.871Z,1006.40
2019-03-28T08:40:02.860Z,1006.45
2019-03-28T08:41:02.845Z,1006.35
2019-03-28T08:42:02.834Z,1006.51
2019-03-28T08:43:02.824Z,1006.37
2019-03-28T08:44:02.801Z,1006.37
2019-03-28T08:45:02.848Z,1006.39
2019-03-28T08:46:02.830Z,1006.32
2019-03-28T08:47:06.057Z,1006.45
2019-03-28T08:48:02.767Z,1006.39
2019-03-28T08:49:02.755Z,1006.37
2019-03-28T08:50:02.737Z,1006.39
2019-03-28T08:51:02.732Z,1006.52
2019-03-28T08:52:02.717Z,1006.52
2019-03-28T08:53:02.710Z,1006.38
2019-03-28T08:54:02.694Z,1006.40
2019-03-28T08:55:02.818Z,1006.46
2019-03-28T08:56:02.733Z,1006.51
2019-03-28T08:57:02.666Z,1006.45
2019-03-28T08:58:02.661Z,1006.45
2019-03-28T08:59:02.660Z,1006.45
2019-03-28T09:00:02.630Z,1006.48
2019-03-28T09:01:02.633Z,1006.39
2019-03-28T09:02:05.037Z,1006.42
2019-03-28T09:03:02.607Z,1006.26
2019-03-28T09:04:02.631Z,1006.36
2019-03-28T09:05:02.673Z,1006.46
2019-03-28T09:06:02.586Z,1006.44
2019-03-28T09:07:02.594Z,1006.30
2019-03-28T09:08:02.602Z,1006.40
2019-03-28T09:09:02.681Z,1006.30
2019-03-28T09:10:02.526Z,1006.29
2019-03-28T09:11:02.517Z,1006.29
2019-03-28T09:12:02.543Z,1006.40
2019-03-28T09:13:02.497Z,1006.42
2019-03-28T09:14:02.482Z,1006.28
2019-03-28T09:15:02.527Z,1006.29
2019-03-28T09:16:02.480Z,1006.28
2019-03-28T09:17:02.472Z,1006.43
2019-03-28T09:18:02.511Z,1006.43
2019-03-28T09:19:02.607Z,1006.39
2019-03-28T09:20:02.454Z,1006.33
2019-03-28T09:21:02.403Z,1006.43
2019-03-28T09:22:02.403Z,1006.43
2019-03-28T09:23:02.442Z,1006.38
2019-03-28T09:24:02.378Z,1006.37
2019-03-28T09:25:02.428Z,1006.32
2019-03-28T09:26:04.408Z,1006.48
2019-03-28T09:27:02.348Z,1006.44
2019-03-28T09:28:02.327Z,1006.29
2019-03-28T09:29:02.330Z,1006.53
2019-03-28T09:30:02.312Z,1006.49
2019-03-28T09:31:02.307Z,1006.45
2019-03-28T09:32:02.300Z,1006.29
2019-03-28T09:33:02.276Z,1006.41
2019-03-28T09:34:02.279Z,1006.32
2019-03-28T09:35:02.401Z,1006.33
2019-03-28T09:36:02.243Z,1006.41
2019-03-28T09:37:02.232Z,1006.45
2019-03-28T09:38:02.232Z,1006.49
2019-03-28T09:39:02.210Z,1006.40
2019-03-28T09:40:02.199Z,1006.42
2019-03-28T09:41:02.216Z,1006.39
2019-03-28T09:42:02.189Z,1006.45
2019-03-28T09:43:02.189Z,1006.40
2019-03-28T09:44:02.158Z,1006.49
2019-03-28T09:45:02.188Z,1006.44
2019-03-28T09:46:02.296Z,1006.50
2019-03-28T09:47:02.124Z,1006.50
2019-03-28T09:48:02.126Z,1006.51
2019-03-28T09:49:02.129Z,1006.53
2019-03-28T09:50:02.096Z,1006.59
2019-03-28T09:51:02.087Z,1006.63
2019-03-28T09:52:02.090Z,1006.50
2019-03-28T09:53:02.064Z,1006.66
2019-03-28T09:54:02.058Z,1006.62
2019-03-28T09:55:02.071Z,1006.45
2019-03-28T09:56:02.041Z,1006.51
2019-03-28T09:57:02.029Z,1006.55
2019-03-28T09:58:02.007Z,1006.47
2019-03-28T09:59:02.037Z,1006.52
2019-03-28T10:00:02.042Z,1006.53
2019-03-28T10:01:03.434Z,1006.63
2019-03-28T10:02:02.537Z,1006.56
2019-03-28T10:03:01.955Z,1006.57
2019-03-28T10:04:01.955Z,1006.54
2019-03-28T10:05:01.939Z,1006.46
2019-03-28T10:06:01.930Z,1006.52
2019-03-28T10:07:01.920Z,1006.48
2019-03-28T10:08:01.915Z,1006.57
2019-03-28T10:09:01.905Z,1006.56
2019-03-28T10:10:02.084Z,1006.53
2019-03-28T10:11:01.873Z,1006.52
2019-03-28T10:12:01.932Z,1006.42
2019-03-28T10:13:01.948Z,1006.48
2019-03-28T10:14:01.861Z,1006.49
2019-03-28T10:15:01.836Z,1006.41
2019-03-28T10:16:01.828Z,1006.37
2019-03-28T10:17:01.838Z,1006.40
2019-03-28T10:18:01.803Z,1006.48
2019-03-28T10:19:01.817Z,1006.56
2019-03-28T10:20:01.795Z,1006.50
2019-03-28T10:21:01.782Z,1006.57
2019-03-28T10:22:01.772Z,1006.51
2019-03-28T10:23:02.029Z,1006.49
2019-03-28T10:24:01.907Z,1006.54
2019-03-28T10:25:01.840Z,1006.50
2019-03-28T10:26:01.725Z,1006.32
2019-03-28T10:27:01.827Z,1006.41
2019-03-28T10:28:01.701Z,1006.52
2019-03-28T10:29:01.691Z,1006.29
2019-03-28T10:30:01.855Z,1006.35
2019-03-28T10:31:15.522Z,1006.39
2019-03-28T10:32:02.677Z,1006.49
2019-03-28T10:33:01.670Z,1006.37
2019-03-28T10:34:01.659Z,1006.55
2019-03-28T10:35:01.718Z,1006.41
2019-03-28T10:36:01.639Z,1006.37
2019-03-28T10:37:01.607Z,1006.46
2019-03-28T10:38:01.607Z,1006.34
2019-03-28T10:39:01.591Z,1006.42
2019-03-28T10:40:01.578Z,1006.46
2019-03-28T10:41:02.524Z,1006.52
2019-03-28T10:42:01.554Z,1006.65
2019-03-28T10:43:01.554Z,1006.33
2019-03-28T10:44:01.535Z,1006.46
2019-03-28T10:45:01.523Z,1006.39
2019-03-28T10:46:01.522Z,1006.49
2019-03-28T10:47:04.686Z,1006.51
2019-03-28T10:48:01.738Z,1006.55
2019-03-28T10:49:01.697Z,1006.44
2019-03-28T10:50:04.044Z,1006.58
2019-03-28T10:51:01.669Z,1006.40
2019-03-28T10:52:04.094Z,1006.46
2019-03-28T10:53:01.495Z,1006.25
2019-03-28T10:54:01.460Z,1006.46
2019-03-28T10:55:01.426Z,1006.59
2019-03-28T10:56:01.442Z,1006.50
2019-03-28T10:57:12.990Z,1006.51
2019-03-28T10:58:02.394Z,1006.51
2019-03-28T10:59:01.376Z,1006.44
2019-03-28T11:00:01.382Z,1006.53
2019-03-28T11:01:01.375Z,1006.39
2019-03-28T11:02:01.355Z,1006.43
2019-03-28T11:03:01.465Z,1006.50
2019-03-28T11:04:01.381Z,1006.45
2019-03-28T11:05:01.324Z,1006.39
2019-03-28T11:06:01.313Z,1006.46
2019-03-28T11:07:01.308Z,1006.63
2019-03-28T11:08:01.287Z,1006.37
2019-03-28T11:09:01.275Z,1006.47
2019-03-28T11:10:01.403Z,1006.52
2019-03-28T11:11:01.260Z,1006.39
2019-03-28T11:12:01.243Z,1006.49
2019-03-28T11:13:01.231Z,1006.44
2019-03-28T11:14:01.233Z,1006.17
2019-03-28T11:15:01.217Z,1006.29
2019-03-28T11:16:01.212Z,1006.51
2019-03-28T11:17:01.233Z,1006.39
2019-03-28T11:18:01.203Z,1006.40
2019-03-28T11:19:01.176Z,1006.38
2019-03-28T11:20:01.173Z,1006.40
2019-03-28T11:21:01.201Z,1006.29
2019-03-28T11:22:01.159Z,1006.31
2019-03-28T11:23:02.368Z,1006.34
2019-03-28T11:24:01.127Z,1006.34
2019-03-28T11:25:01.100Z,1006.14
2019-03-28T11:26:01.099Z,1006.09
2019-03-28T11:27:01.097Z,1006.26
2019-03-28T11:28:01.076Z,1006.18
2019-03-28T11:29:01.243Z,1006.15
2019-03-28T11:30:01.051Z,1006.24
2019-03-28T11:31:01.044Z,1006.12
2019-03-28T11:32:01.034Z,1006.15
2019-03-28T11:33:01.028Z,1006.29
2019-03-28T11:34:01.017Z,1006.12
2019-03-28T11:35:01.097Z,1006.20
2019-03-28T11:36:00.997Z,1006.20
2019-03-28T11:37:00.981Z,1006.12
2019-03-28T11:38:00.970Z,1006.11
2019-03-28T11:39:02.839Z,1006.15
2019-03-28T11:40:00.949Z,1005.99
2019-03-28T11:41:00.943Z,1006.19
2019-03-28T11:42:01.998Z,1006.21
2019-03-28T11:43:00.921Z,1006.20
2019-03-28T11:44:00.907Z,1006.16
2019-03-28T11:45:00.902Z,1006.25
2019-03-28T11:46:00.895Z,1006.16
2019-03-28T11:47:00.880Z,1006.27
2019-03-28T11:48:00.874Z,1006.15
2019-03-28T11:49:00.872Z,1006.14
2019-03-28T11:50:00.870Z,1006.17
2019-03-28T11:51:00.907Z,1006.21
2019-03-28T11:52:00.894Z,1006.11
2019-03-28T11:53:00.855Z,1006.15
2019-03-28T11:54:00.903Z,1006.02
2019-03-28T11:55:00.792Z,1006.27
2019-03-28T11:56:00.950Z,1006.13
2019-03-28T11:57:00.790Z,1006.13
2019-03-28T11:58:00.814Z,1006.18
2019-03-28T11:59:04.222Z,1006.13
2019-03-28T12:00:00.996Z,1006.09
2019-03-28T12:01:00.855Z,1006.17
2019-03-28T12:02:18.646Z,1006.13
2019-03-28T12:03:01.714Z,1006.07
2019-03-28T12:04:00.901Z,1006.06
2019-03-28T12:05:00.697Z,1005.96